sensor_id;sensor_type;location;lat;lon;timestamp;P1;durP1;ratioP1;P2;durP2;ratioP2
1947;SDS011;974;52.400;9.818;2022-08-30T00:00:19;1.90;;;0.60;;
1947;SDS011;974;52.400;9.818;2022-08-30T00:03:04;1.90;;;0.60;;
1947;SDS011;974;52.400;9.818;2022-08-30T00:05:31;1.90;;;0.60;;
1947;SDS011;974;52.400;9.818;2022-08-30T00:07:57;1.90;;;0.60;;
1947;SDS011;974;52.400;9.818;2022-08-30T00:10:24;1.90;;;0.60;;
1947;SDS011;974;52.400;9.818;2022-08-30T00:12:50;1.90;;;0.60;;
1947;SDS011;974;52.400;9.818;2022-08-30T00:15:16;1.90;;;0.60;;
1947;SDS011;974;52.400;9.818;2022-08-30T00:17:44;1.90;;;0.60;;
1947;SDS011;974;52.400;9.818;2022-08-30T00:20:11;1.90;;;0.60;;
1947;SDS011;974;52.400;9.818;2022-08-30T00:22:38;1.90;;;0.60;;
1947;SDS011;974;52.400;9.818;2022-08-30T00:25:05;1.90;;;0.60;;
1947;SDS011;974;52.400;9.818;2022-08-30T00:27:31;1.90;;;0.60;;
1947;SDS011;974;52.400;9.818;2022-08-30T00:29:57;1.90;;;0.60;;
1947;SDS011;974;52.400;9.818;2022-08-30T00:32:23;1.90;;;0.60;;
1947;SDS011;974;52.400;9.818;2022-08-30T00:34:52;1.90;;;0.60;;
1947;SDS011;974;52.400;9.818;2022-08-30T00:37:18;1.90;;;0.60;;
1947;SDS011;974;52.400;9.818;2022-08-30T00:39:44;1.90;;;0.60;;
1947;SDS011;974;52.400;9.818;2022-08-30T00:42:10;1.90;;;0.60;;
1947;SDS011;974;52.400;9.818;2022-08-30T00:44:36;1.90;;;0.60;;
1947;SDS011;974;52.400;9.818;2022-08-30T00:47:03;1.90;;;0.60;;
1947;SDS011;974;52.400;9.818;2022-08-30T00:49:29;1.90;;;0.60;;
1947;SDS011;974;52.400;9.818;2022-08-30T00:51:56;1.90;;;0.60;;
1947;SDS011;974;52.400;9.818;2022-08-30T00:54:22;1.90;;;0.60;;
1947;SDS011;974;52.400;9.818;2022-08-30T00:56:49;1.90;;;0.60;;
1947;SDS011;974;52.400;9.818;2022-08-30T00:59:16;1.90;;;0.60;;
1947;SDS011;974;52.400;9.818;2022-08-30T01:01:43;1.90;;;0.60;;
1947;SDS011;974;52.400;9.818;2022-08-30T01:04:09;1.90;;;0.60;;
1947;SDS011;974;52.400;9.818;2022-08-30T01:06:37;1.90;;;0.60;;
1947;SDS011;974;52.400;9.818;2022-08-30T01:09:04;1.90;;;0.60;;
1947;SDS011;974;52.400;9.818;2022-08-30T01:11:31;1.90;;;0.60;;
1947;SDS011;974;52.400;9.818;2022-08-30T01:13:58;1.90;;;0.60;;
1947;SDS011;974;52.400;9.818;2022-08-30T01:16:26;1.90;;;0.60;;
1947;SDS011;974;52.400;9.818;2022-08-30T01:18:53;1.90;;;0.60;;
1947;SDS011;974;52.400;9.818;2022-08-30T01:21:41;1.90;;;0.60;;
1947;SDS011;974;52.400;9.818;2022-08-30T01:24:13;1.90;;;0.60;;
1947;SDS011;974;52.400;9.818;2022-08-30T01:26:39;1.90;;;0.60;;
1947;SDS011;974;52.400;9.818;2022-08-30T01:29:17;1.90;;;0.60;;
1947;SDS011;974;52.400;9.818;2022-08-30T01:31:45;1.90;;;0.60;;
1947;SDS011;974;52.400;9.818;2022-08-30T01:34:10;1.90;;;0.60;;
1947;SDS011;974;52.400;9.818;2022-08-30T01:36:36;1.90;;;0.60;;
1947;SDS011;974;52.400;9.818;2022-08-30T01:39:03;1.90;;;0.60;;
1947;SDS011;974;52.400;9.818;2022-08-30T01:41:32;1.90;;;0.60;;
1947;SDS011;974;52.400;9.818;2022-08-30T01:43:59;1.90;;;0.60;;
1947;SDS011;974;52.400;9.818;2022-08-30T01:46:29;1.90;;;0.60;;
1947;SDS011;974;52.400;9.818;2022-08-30T01:49:00;1.90;;;0.60;;
1947;SDS011;974;52.400;9.818;2022-08-30T01:51:28;1.90;;;0.60;;
1947;SDS011;974;52.400;9.818;2022-08-30T01:53:54;1.90;;;0.60;;
1947;SDS011;974;52.400;9.818;2022-08-30T01:56:20;1.90;;;0.60;;
1947;SDS011;974;52.400;9.818;2022-08-30T01:58:47;1.90;;;0.60;;
1947;SDS011;974;52.400;9.818;2022-08-30T02:01:13;1.90;;;0.60;;
1947;SDS011;974;52.400;9.818;2022-08-30T02:03:41;1.90;;;0.60;;
1947;SDS011;974;52.400;9.818;2022-08-30T02:06:09;1.90;;;0.60;;
1947;SDS011;974;52.400;9.818;2022-08-30T02:08:37;1.90;;;0.60;;
1947;SDS011;974;52.400;9.818;2022-08-30T02:11:06;1.90;;;0.60;;
1947;SDS011;974;52.400;9.818;2022-08-30T02:13:33;1.90;;;0.60;;
1947;SDS011;974;52.400;9.818;2022-08-30T02:16:01;1.90;;;0.60;;
1947;SDS011;974;52.400;9.818;2022-08-30T02:18:28;1.90;;;0.60;;
1947;SDS011;974;52.400;9.818;2022-08-30T02:20:54;1.90;;;0.60;;
1947;SDS011;974;52.400;9.818;2022-08-30T02:23:19;1.90;;;0.60;;
1947;SDS011;974;52.400;9.818;2022-08-30T02:25:45;1.90;;;0.60;;
1947;SDS011;974;52.400;9.818;2022-08-30T02:28:10;1.90;;;0.60;;
1947;SDS011;974;52.400;9.818;2022-08-30T02:30:37;1.90;;;0.60;;
1947;SDS011;974;52.400;9.818;2022-08-30T02:33:03;1.90;;;0.60;;
1947;SDS011;974;52.400;9.818;2022-08-30T02:35:28;1.90;;;0.60;;
1947;SDS011;974;52.400;9.818;2022-08-30T02:37:54;1.90;;;0.60;;
1947;SDS011;974;52.400;9.818;2022-08-30T02:40:19;1.90;;;0.60;;
1947;SDS011;974;52.400;9.818;2022-08-30T02:42:46;1.90;;;0.60;;
1947;SDS011;974;52.400;9.818;2022-08-30T02:45:12;1.90;;;0.60;;
1947;SDS011;974;52.400;9.818;2022-08-30T02:47:39;1.90;;;0.60;;
1947;SDS011;974;52.400;9.818;2022-08-30T02:50:05;1.90;;;0.60;;
1947;SDS011;974;52.400;9.818;2022-08-30T02:52:32;1.90;;;0.60;;
1947;SDS011;974;52.400;9.818;2022-08-30T02:54:58;1.90;;;0.60;;
1947;SDS011;974;52.400;9.818;2022-08-30T02:57:24;1.90;;;0.60;;
1947;SDS011;974;52.400;9.818;2022-08-30T02:59:50;1.90;;;0.60;;
1947;SDS011;974;52.400;9.818;2022-08-30T03:02:15;1.90;;;0.60;;
1947;SDS011;974;52.400;9.818;2022-08-30T03:04:41;1.90;;;0.60;;
1947;SDS011;974;52.400;9.818;2022-08-30T03:07:11;1.90;;;0.60;;
1947;SDS011;974;52.400;9.818;2022-08-30T03:09:36;1.90;;;0.60;;
1947;SDS011;974;52.400;9.818;2022-08-30T03:12:03;1.90;;;0.60;;
1947;SDS011;974;52.400;9.818;2022-08-30T03:14:30;1.90;;;0.60;;
1947;SDS011;974;52.400;9.818;2022-08-30T03:16:56;1.90;;;0.60;;
1947;SDS011;974;52.400;9.818;2022-08-30T03:19:22;1.90;;;0.60;;
1947;SDS011;974;52.400;9.818;2022-08-30T03:21:49;1.90;;;0.60;;
1947;SDS011;974;52.400;9.818;2022-08-30T03:24:15;1.90;;;0.60;;
1947;SDS011;974;52.400;9.818;2022-08-30T03:26:40;1.90;;;0.60;;
1947;SDS011;974;52.400;9.818;2022-08-30T03:29:06;1.90;;;0.60;;
1947;SDS011;974;52.400;9.818;2022-08-30T03:31:31;1.90;;;0.60;;
1947;SDS011;974;52.400;9.818;2022-08-30T03:33:57;1.90;;;0.60;;
1947;SDS011;974;52.400;9.818;2022-08-30T03:36:22;1.87;;;0.60;;
1947;SDS011;974;52.400;9.818;2022-08-30T03:38:48;1.90;;;0.70;;
1947;SDS011;974;52.400;9.818;2022-08-30T03:41:13;1.90;;;0.60;;
1947;SDS011;974;52.400;9.818;2022-08-30T03:43:41;1.90;;;0.60;;
1947;SDS011;974;52.400;9.818;2022-08-30T03:46:07;1.90;;;0.60;;
1947;SDS011;974;52.400;9.818;2022-08-30T03:48:32;1.90;;;0.60;;
1947;SDS011;974;52.400;9.818;2022-08-30T03:50:58;1.90;;;0.60;;
1947;SDS011;974;52.400;9.818;2022-08-30T03:53:23;1.90;;;0.60;;
1947;SDS011;974;52.400;9.818;2022-08-30T03:55:49;1.90;;;0.60;;
1947;SDS011;974;52.400;9.818;2022-08-30T03:58:14;1.90;;;0.60;;
1947;SDS011;974;52.400;9.818;2022-08-30T04:00:40;1.90;;;0.60;;
1947;SDS011;974;52.400;9.818;2022-08-30T04:03:05;1.90;;;0.60;;
1947;SDS011;974;52.400;9.818;2022-08-30T04:05:31;1.90;;;0.60;;
1947;SDS011;974;52.400;9.818;2022-08-30T04:07:56;1.90;;;0.60;;
1947;SDS011;974;52.400;9.818;2022-08-30T04:10:22;1.90;;;0.60;;
1947;SDS011;974;52.400;9.818;2022-08-30T04:12:48;1.90;;;0.60;;
1947;SDS011;974;52.400;9.818;2022-08-30T04:15:15;1.90;;;0.60;;
1947;SDS011;974;52.400;9.818;2022-08-30T04:17:41;1.90;;;0.60;;
1947;SDS011;974;52.400;9.818;2022-08-30T04:20:07;1.90;;;0.60;;
1947;SDS011;974;52.400;9.818;2022-08-30T04:22:33;1.90;;;0.60;;
1947;SDS011;974;52.400;9.818;2022-08-30T04:25:00;1.90;;;0.60;;
1947;SDS011;974;52.400;9.818;2022-08-30T04:27:26;1.90;;;0.60;;
1947;SDS011;974;52.400;9.818;2022-08-30T04:29:52;1.90;;;0.60;;
1947;SDS011;974;52.400;9.818;2022-08-30T04:32:20;1.90;;;0.60;;
1947;SDS011;974;52.400;9.818;2022-08-30T04:34:46;1.90;;;0.60;;
1947;SDS011;974;52.400;9.818;2022-08-30T04:37:12;1.90;;;0.60;;
1947;SDS011;974;52.400;9.818;2022-08-30T04:39:38;1.90;;;0.60;;
1947;SDS011;974;52.400;9.818;2022-08-30T04:42:04;1.90;;;0.60;;
1947;SDS011;974;52.400;9.818;2022-08-30T04:44:31;1.90;;;0.60;;
1947;SDS011;974;52.400;9.818;2022-08-30T04:46:56;1.90;;;0.60;;
1947;SDS011;974;52.400;9.818;2022-08-30T04:49:23;1.90;;;0.60;;
1947;SDS011;974;52.400;9.818;2022-08-30T04:51:48;1.90;;;0.60;;
1947;SDS011;974;52.400;9.818;2022-08-30T04:54:14;1.90;;;0.60;;
1947;SDS011;974;52.400;9.818;2022-08-30T04:56:39;1.90;;;0.60;;
1947;SDS011;974;52.400;9.818;2022-08-30T04:59:05;1.90;;;0.60;;
1947;SDS011;974;52.400;9.818;2022-08-30T05:01:31;1.90;;;0.60;;
1947;SDS011;974;52.400;9.818;2022-08-30T05:03:57;1.90;;;0.60;;
1947;SDS011;974;52.400;9.818;2022-08-30T05:06:24;1.90;;;0.60;;
1947;SDS011;974;52.400;9.818;2022-08-30T05:08:51;1.90;;;0.60;;
1947;SDS011;974;52.400;9.818;2022-08-30T05:11:18;1.90;;;0.60;;
1947;SDS011;974;52.400;9.818;2022-08-30T05:13:44;1.90;;;0.60;;
1947;SDS011;974;52.400;9.818;2022-08-30T05:16:10;1.80;;;0.60;;
1947;SDS011;974;52.400;9.818;2022-08-30T05:18:41;1.90;;;0.60;;
1947;SDS011;974;52.400;9.818;2022-08-30T05:21:13;1.90;;;0.60;;
1947;SDS011;974;52.400;9.818;2022-08-30T05:23:43;1.85;;;0.60;;
1947;SDS011;974;52.400;9.818;2022-08-30T05:26:10;1.90;;;0.60;;
1947;SDS011;974;52.400;9.818;2022-08-30T05:28:41;1.88;;;0.60;;
1947;SDS011;974;52.400;9.818;2022-08-30T05:31:12;1.83;;;0.60;;
1947;SDS011;974;52.400;9.818;2022-08-30T05:33:38;1.83;;;0.60;;
1947;SDS011;974;52.400;9.818;2022-08-30T05:36:07;1.90;;;0.60;;
1947;SDS011;974;52.400;9.818;2022-08-30T05:38:34;1.88;;;0.60;;
1947;SDS011;974;52.400;9.818;2022-08-30T05:41:00;1.90;;;0.60;;
1947;SDS011;974;52.400;9.818;2022-08-30T05:43:26;1.90;;;0.60;;
1947;SDS011;974;52.400;9.818;2022-08-30T05:45:58;1.90;;;0.60;;
1947;SDS011;974;52.400;9.818;2022-08-30T05:48:25;1.90;;;0.60;;
1947;SDS011;974;52.400;9.818;2022-08-30T05:50:59;1.83;;;0.60;;
1947;SDS011;974;52.400;9.818;2022-08-30T05:53:34;1.80;;;0.60;;
1947;SDS011;974;52.400;9.818;2022-08-30T05:56:04;1.85;;;0.60;;
1947;SDS011;974;52.400;9.818;2022-08-30T05:58:31;1.85;;;0.60;;
1947;SDS011;974;52.400;9.818;2022-08-30T06:00:57;1.80;;;0.60;;
1947;SDS011;974;52.400;9.818;2022-08-30T06:03:24;1.80;;;0.60;;
1947;SDS011;974;52.400;9.818;2022-08-30T06:05:50;1.90;;;0.60;;
1947;SDS011;974;52.400;9.818;2022-08-30T06:08:16;1.90;;;0.60;;
1947;SDS011;974;52.400;9.818;2022-08-30T06:10:41;1.80;;;0.60;;
1947;SDS011;974;52.400;9.818;2022-08-30T06:13:07;1.80;;;0.60;;
1947;SDS011;974;52.400;9.818;2022-08-30T06:15:33;1.83;;;0.60;;
1947;SDS011;974;52.400;9.818;2022-08-30T06:17:59;1.80;;;0.60;;
1947;SDS011;974;52.400;9.818;2022-08-30T06:20:24;1.80;;;0.60;;
1947;SDS011;974;52.400;9.818;2022-08-30T06:22:49;1.80;;;0.60;;
1947;SDS011;974;52.400;9.818;2022-08-30T06:25:15;1.80;;;0.60;;
1947;SDS011;974;52.400;9.818;2022-08-30T06:27:41;1.80;;;0.60;;
1947;SDS011;974;52.400;9.818;2022-08-30T06:30:07;1.83;;;0.60;;
1947;SDS011;974;52.400;9.818;2022-08-30T06:32:35;1.80;;;0.60;;
1947;SDS011;974;52.400;9.818;2022-08-30T06:35:01;1.80;;;0.60;;
1947;SDS011;974;52.400;9.818;2022-08-30T06:37:28;1.85;;;0.60;;
1947;SDS011;974;52.400;9.818;2022-08-30T06:39:54;1.80;;;0.60;;
1947;SDS011;974;52.400;9.818;2022-08-30T06:42:21;1.80;;;0.60;;
1947;SDS011;974;52.400;9.818;2022-08-30T06:44:47;1.80;;;0.60;;
1947;SDS011;974;52.400;9.818;2022-08-30T06:47:13;1.80;;;0.60;;
1947;SDS011;974;52.400;9.818;2022-08-30T06:49:38;1.80;;;0.60;;
1947;SDS011;974;52.400;9.818;2022-08-30T06:52:04;1.80;;;0.60;;
1947;SDS011;974;52.400;9.818;2022-08-30T06:54:29;1.80;;;0.60;;
1947;SDS011;974;52.400;9.818;2022-08-30T06:56:55;1.80;;;0.60;;
1947;SDS011;974;52.400;9.818;2022-08-30T06:59:20;1.80;;;0.60;;
1947;SDS011;974;52.400;9.818;2022-08-30T07:01:46;1.80;;;0.60;;
1947;SDS011;974;52.400;9.818;2022-08-30T07:04:11;1.80;;;0.60;;
1947;SDS011;974;52.400;9.818;2022-08-30T07:06:37;1.83;;;0.60;;
1947;SDS011;974;52.400;9.818;2022-08-30T07:09:02;1.80;;;0.60;;
1947;SDS011;974;52.400;9.818;2022-08-30T07:11:32;1.80;;;0.60;;
1947;SDS011;974;52.400;9.818;2022-08-30T07:14:00;1.80;;;0.60;;
1947;SDS011;974;52.400;9.818;2022-08-30T07:16:26;1.80;;;0.60;;
1947;SDS011;974;52.400;9.818;2022-08-30T07:18:52;1.80;;;0.60;;
1947;SDS011;974;52.400;9.818;2022-08-30T07:21:30;1.80;;;0.60;;
1947;SDS011;974;52.400;9.818;2022-08-30T07:23:59;1.80;;;0.60;;
1947;SDS011;974;52.400;9.818;2022-08-30T07:26:27;1.80;;;0.60;;
1947;SDS011;974;52.400;9.818;2022-08-30T07:28:59;1.80;;;0.60;;
1947;SDS011;974;52.400;9.818;2022-08-30T07:31:25;1.80;;;0.60;;
1947;SDS011;974;52.400;9.818;2022-08-30T07:33:51;1.80;;;0.60;;
1947;SDS011;974;52.400;9.818;2022-08-30T07:36:18;1.80;;;0.60;;
1947;SDS011;974;52.400;9.818;2022-08-30T07:38:45;1.80;;;0.60;;
1947;SDS011;974;52.400;9.818;2022-08-30T07:41:19;1.80;;;0.60;;
1947;SDS011;974;52.400;9.818;2022-08-30T07:43:47;1.80;;;0.60;;
1947;SDS011;974;52.400;9.818;2022-08-30T07:46:14;1.80;;;0.60;;
1947;SDS011;974;52.400;9.818;2022-08-30T07:48:40;1.80;;;0.60;;
1947;SDS011;974;52.400;9.818;2022-08-30T07:51:10;1.80;;;0.60;;
1947;SDS011;974;52.400;9.818;2022-08-30T07:53:36;1.80;;;0.60;;
1947;SDS011;974;52.400;9.818;2022-08-30T07:56:02;1.80;;;0.60;;
1947;SDS011;974;52.400;9.818;2022-08-30T07:58:28;1.80;;;0.60;;
1947;SDS011;974;52.400;9.818;2022-08-30T08:00:53;1.80;;;0.60;;
1947;SDS011;974;52.400;9.818;2022-08-30T08:03:23;1.80;;;0.60;;
1947;SDS011;974;52.400;9.818;2022-08-30T08:05:52;1.80;;;0.60;;
1947;SDS011;974;52.400;9.818;2022-08-30T08:08:18;1.80;;;0.60;;
1947;SDS011;974;52.400;9.818;2022-08-30T08:10:44;1.80;;;0.60;;
1947;SDS011;974;52.400;9.818;2022-08-30T08:13:09;1.80;;;0.60;;
1947;SDS011;974;52.400;9.818;2022-08-30T08:15:35;1.80;;;0.60;;
1947;SDS011;974;52.400;9.818;2022-08-30T08:18:01;1.80;;;0.60;;
1947;SDS011;974;52.400;9.818;2022-08-30T08:20:27;1.80;;;0.60;;
1947;SDS011;974;52.400;9.818;2022-08-30T08:22:53;1.80;;;0.60;;
1947;SDS011;974;52.400;9.818;2022-08-30T08:25:19;1.80;;;0.60;;
1947;SDS011;974;52.400;9.818;2022-08-30T08:27:46;1.80;;;0.60;;
1947;SDS011;974;52.400;9.818;2022-08-30T08:30:14;1.80;;;0.60;;
1947;SDS011;974;52.400;9.818;2022-08-30T08:32:41;1.80;;;0.60;;
1947;SDS011;974;52.400;9.818;2022-08-30T08:35:07;1.80;;;0.60;;
1947;SDS011;974;52.400;9.818;2022-08-30T08:37:35;1.80;;;0.60;;
1947;SDS011;974;52.400;9.818;2022-08-30T08:40:01;1.80;;;0.60;;
1947;SDS011;974;52.400;9.818;2022-08-30T08:42:47;1.80;;;0.60;;
1947;SDS011;974;52.400;9.818;2022-08-30T08:50:42;1.80;;;0.60;;
1947;SDS011;974;52.400;9.818;2022-08-30T08:53:34;1.80;;;0.60;;
1947;SDS011;974;52.400;9.818;2022-08-30T08:56:01;1.80;;;0.60;;
1947;SDS011;974;52.400;9.818;2022-08-30T08:58:31;1.80;;;0.60;;
1947;SDS011;974;52.400;9.818;2022-08-30T09:01:06;1.80;;;0.60;;
1947;SDS011;974;52.400;9.818;2022-08-30T09:03:33;1.80;;;0.60;;
1947;SDS011;974;52.400;9.818;2022-08-30T09:06:01;1.80;;;0.60;;
1947;SDS011;974;52.400;9.818;2022-08-30T09:08:31;1.80;;;0.60;;
1947;SDS011;974;52.400;9.818;2022-08-30T09:11:00;1.83;;;0.60;;
1947;SDS011;974;52.400;9.818;2022-08-30T09:13:29;1.80;;;0.60;;
1947;SDS011;974;52.400;9.818;2022-08-30T09:15:55;1.80;;;0.60;;
1947;SDS011;974;52.400;9.818;2022-08-30T09:18:39;1.80;;;0.60;;
1947;SDS011;974;52.400;9.818;2022-08-30T09:21:07;1.83;;;0.60;;
1947;SDS011;974;52.400;9.818;2022-08-30T09:23:33;1.80;;;0.60;;
1947;SDS011;974;52.400;9.818;2022-08-30T09:26:00;1.80;;;0.60;;
1947;SDS011;974;52.400;9.818;2022-08-30T09:28:31;1.80;;;0.60;;
1947;SDS011;974;52.400;9.818;2022-08-30T09:31:04;1.80;;;0.60;;
1947;SDS011;974;52.400;9.818;2022-08-30T09:33:30;1.80;;;0.60;;
1947;SDS011;974;52.400;9.818;2022-08-30T09:35:56;1.80;;;0.60;;
1947;SDS011;974;52.400;9.818;2022-08-30T09:38:36;1.80;;;0.60;;
1947;SDS011;974;52.400;9.818;2022-08-30T09:41:24;1.80;;;0.60;;
1947;SDS011;974;52.400;9.818;2022-08-30T09:44:04;1.80;;;0.60;;
1947;SDS011;974;52.400;9.818;2022-08-30T09:46:48;1.80;;;0.60;;
1947;SDS011;974;52.400;9.818;2022-08-30T09:49:29;1.80;;;0.60;;
1947;SDS011;974;52.400;9.818;2022-08-30T09:52:00;1.83;;;0.60;;
1947;SDS011;974;52.400;9.818;2022-08-30T10:00:23;1.80;;;0.60;;
1947;SDS011;974;52.400;9.818;2022-08-30T10:08:17;1.80;;;0.60;;
1947;SDS011;974;52.400;9.818;2022-08-30T10:10:55;1.80;;;0.60;;
1947;SDS011;974;52.400;9.818;2022-08-30T10:13:37;1.80;;;0.60;;
1947;SDS011;974;52.400;9.818;2022-08-30T10:18:54;1.80;;;0.60;;
1947;SDS011;974;52.400;9.818;2022-08-30T10:21:34;1.80;;;0.60;;
1947;SDS011;974;52.400;9.818;2022-08-30T10:24:15;1.80;;;0.60;;
1947;SDS011;974;52.400;9.818;2022-08-30T10:26:45;1.80;;;0.60;;
1947;SDS011;974;52.400;9.818;2022-08-30T10:29:18;1.80;;;0.60;;
1947;SDS011;974;52.400;9.818;2022-08-30T10:32:01;1.90;;;0.60;;
1947;SDS011;974;52.400;9.818;2022-08-30T10:34:47;1.85;;;0.60;;
1947;SDS011;974;52.400;9.818;2022-08-30T10:37:19;1.90;;;0.60;;
1947;SDS011;974;52.400;9.818;2022-08-30T10:39:50;1.90;;;0.60;;
1947;SDS011;974;52.400;9.818;2022-08-30T10:42:20;1.90;;;0.60;;
1947;SDS011;974;52.400;9.818;2022-08-30T10:44:49;1.90;;;0.60;;
1947;SDS011;974;52.400;9.818;2022-08-30T10:50:18;1.90;;;0.60;;
1947;SDS011;974;52.400;9.818;2022-08-30T10:52:59;1.88;;;0.60;;
1947;SDS011;974;52.400;9.818;2022-08-30T10:55:34;1.88;;;0.60;;
1947;SDS011;974;52.400;9.818;2022-08-30T10:58:08;1.90;;;0.60;;
1947;SDS011;974;52.400;9.818;2022-08-30T11:00:37;1.90;;;0.60;;
1947;SDS011;974;52.400;9.818;2022-08-30T11:09:29;1.80;;;0.60;;
1947;SDS011;974;52.400;9.818;2022-08-30T11:15:50;1.85;;;0.60;;
1947;SDS011;974;52.400;9.818;2022-08-30T11:18:03;1.80;;;0.60;;
1947;SDS011;974;52.400;9.818;2022-08-30T11:20:42;1.90;;;0.60;;
1947;SDS011;974;52.400;9.818;2022-08-30T11:26:06;1.90;;;0.60;;
1947;SDS011;974;52.400;9.818;2022-08-30T11:33:48;1.90;;;0.60;;
1947;SDS011;974;52.400;9.818;2022-08-30T11:41:42;1.90;;;0.60;;
1947;SDS011;974;52.400;9.818;2022-08-30T11:46:46;1.90;;;0.60;;
1947;SDS011;974;52.400;9.818;2022-08-30T11:55:20;1.90;;;0.60;;
1947;SDS011;974;52.400;9.818;2022-08-30T12:00:37;1.90;;;0.60;;
1947;SDS011;974;52.400;9.818;2022-08-30T12:05:45;1.90;;;0.60;;
1947;SDS011;974;52.400;9.818;2022-08-30T12:11:02;2.00;;;0.60;;
1947;SDS011;974;52.400;9.818;2022-08-30T12:21:37;2.00;;;0.60;;
1947;SDS011;974;52.400;9.818;2022-08-30T12:24:04;2.00;;;0.60;;
1947;SDS011;974;52.400;9.818;2022-08-30T12:26:47;2.00;;;0.60;;
1947;SDS011;974;52.400;9.818;2022-08-30T12:29:17;2.00;;;0.60;;
1947;SDS011;974;52.400;9.818;2022-08-30T12:31:51;2.00;;;0.60;;
1947;SDS011;974;52.400;9.818;2022-08-30T12:34:23;2.00;;;0.60;;
1947;SDS011;974;52.400;9.818;2022-08-30T12:37:06;2.00;;;0.60;;
1947;SDS011;974;52.400;9.818;2022-08-30T12:39:36;2.00;;;0.60;;
1947;SDS011;974;52.400;9.818;2022-08-30T12:42:26;2.00;;;0.60;;
1947;SDS011;974;52.400;9.818;2022-08-30T12:44:55;2.00;;;0.60;;
1947;SDS011;974;52.400;9.818;2022-08-30T12:47:25;2.00;;;0.60;;
1947;SDS011;974;52.400;9.818;2022-08-30T12:50:04;2.00;;;0.60;;
1947;SDS011;974;52.400;9.818;2022-08-30T12:55:09;2.00;;;0.60;;
1947;SDS011;974;52.400;9.818;2022-08-30T13:00:29;2.00;;;0.60;;
1947;SDS011;974;52.400;9.818;2022-08-30T13:03:02;2.00;;;0.60;;
1947;SDS011;974;52.400;9.818;2022-08-30T13:05:47;2.00;;;0.60;;
1947;SDS011;974;52.400;9.818;2022-08-30T13:08:22;2.00;;;0.60;;
1947;SDS011;974;52.400;9.818;2022-08-30T13:10:59;2.00;;;0.60;;
1947;SDS011;974;52.400;9.818;2022-08-30T13:15:55;2.00;;;0.60;;
1947;SDS011;974;52.400;9.818;2022-08-30T13:18:30;2.00;;;0.60;;
1947;SDS011;974;52.400;9.818;2022-08-30T13:21:08;2.00;;;0.60;;
1947;SDS011;974;52.400;9.818;2022-08-30T13:23:45;2.00;;;0.60;;
1947;SDS011;974;52.400;9.818;2022-08-30T13:26:11;2.00;;;0.60;;
1947;SDS011;974;52.400;9.818;2022-08-30T13:31:19;2.00;;;0.60;;
1947;SDS011;974;52.400;9.818;2022-08-30T13:33:46;2.00;;;0.60;;
1947;SDS011;974;52.400;9.818;2022-08-30T13:36:16;2.00;;;0.60;;
1947;SDS011;974;52.400;9.818;2022-08-30T13:38:42;2.00;;;0.60;;
1947;SDS011;974;52.400;9.818;2022-08-30T13:41:08;2.00;;;0.60;;
1947;SDS011;974;52.400;9.818;2022-08-30T13:43:33;2.00;;;0.60;;
1947;SDS011;974;52.400;9.818;2022-08-30T13:45:59;2.00;;;0.60;;
1947;SDS011;974;52.400;9.818;2022-08-30T13:48:24;2.00;;;0.60;;
1947;SDS011;974;52.400;9.818;2022-08-30T13:50:50;2.00;;;0.60;;
1947;SDS011;974;52.400;9.818;2022-08-30T13:53:17;2.00;;;0.60;;
1947;SDS011;974;52.400;9.818;2022-08-30T13:55:43;2.00;;;0.60;;
1947;SDS011;974;52.400;9.818;2022-08-30T13:58:08;2.00;;;0.60;;
1947;SDS011;974;52.400;9.818;2022-08-30T14:00:34;2.00;;;0.60;;
1947;SDS011;974;52.400;9.818;2022-08-30T14:03:00;2.00;;;0.60;;
1947;SDS011;974;52.400;9.818;2022-08-30T14:05:30;2.00;;;0.60;;
1947;SDS011;974;52.400;9.818;2022-08-30T14:07:58;2.00;;;0.60;;
1947;SDS011;974;52.400;9.818;2022-08-30T14:10:25;2.00;;;0.60;;
1947;SDS011;974;52.400;9.818;2022-08-30T14:12:52;2.00;;;0.60;;
1947;SDS011;974;52.400;9.818;2022-08-30T14:15:18;2.00;;;0.60;;
1947;SDS011;974;52.400;9.818;2022-08-30T14:17:43;2.00;;;0.60;;
1947;SDS011;974;52.400;9.818;2022-08-30T14:20:09;2.00;;;0.60;;
1947;SDS011;974;52.400;9.818;2022-08-30T14:22:35;2.00;;;0.60;;
1947;SDS011;974;52.400;9.818;2022-08-30T14:25:01;2.00;;;0.60;;
1947;SDS011;974;52.400;9.818;2022-08-30T14:27:27;2.00;;;0.60;;
1947;SDS011;974;52.400;9.818;2022-08-30T14:29:53;2.00;;;0.60;;
1947;SDS011;974;52.400;9.818;2022-08-30T14:32:19;2.00;;;0.60;;
1947;SDS011;974;52.400;9.818;2022-08-30T14:34:44;2.00;;;0.60;;
1947;SDS011;974;52.400;9.818;2022-08-30T14:37:10;2.00;;;0.60;;
1947;SDS011;974;52.400;9.818;2022-08-30T14:39:36;2.00;;;0.60;;
1947;SDS011;974;52.400;9.818;2022-08-30T14:42:01;2.00;;;0.60;;
1947;SDS011;974;52.400;9.818;2022-08-30T14:44:27;2.00;;;0.60;;
1947;SDS011;974;52.400;9.818;2022-08-30T14:46:53;2.00;;;0.60;;
1947;SDS011;974;52.400;9.818;2022-08-30T14:49:19;2.00;;;0.60;;
1947;SDS011;974;52.400;9.818;2022-08-30T14:51:45;2.00;;;0.60;;
1947;SDS011;974;52.400;9.818;2022-08-30T14:54:12;2.00;;;0.60;;
1947;SDS011;974;52.400;9.818;2022-08-30T14:56:39;2.00;;;0.60;;
1947;SDS011;974;52.400;9.818;2022-08-30T14:59:05;2.00;;;0.60;;
1947;SDS011;974;52.400;9.818;2022-08-30T15:01:31;2.00;;;0.60;;
1947;SDS011;974;52.400;9.818;2022-08-30T15:03:57;1.97;;;0.60;;
1947;SDS011;974;52.400;9.818;2022-08-30T15:06:24;2.00;;;0.60;;
1947;SDS011;974;52.400;9.818;2022-08-30T15:08:49;2.00;;;0.60;;
1947;SDS011;974;52.400;9.818;2022-08-30T15:11:17;2.00;;;0.60;;
1947;SDS011;974;52.400;9.818;2022-08-30T15:13:44;2.00;;;0.60;;
1947;SDS011;974;52.400;9.818;2022-08-30T15:16:12;1.97;;;0.60;;
1947;SDS011;974;52.400;9.818;2022-08-30T15:18:42;2.00;;;0.60;;
1947;SDS011;974;52.400;9.818;2022-08-30T15:21:08;2.00;;;0.60;;
1947;SDS011;974;52.400;9.818;2022-08-30T15:23:34;2.00;;;0.60;;
1947;SDS011;974;52.400;9.818;2022-08-30T15:26:00;1.93;;;0.60;;
1947;SDS011;974;52.400;9.818;2022-08-30T15:28:26;1.90;;;0.60;;
1947;SDS011;974;52.400;9.818;2022-08-30T15:30:51;2.00;;;0.60;;
1947;SDS011;974;52.400;9.818;2022-08-30T15:33:17;2.00;;;0.60;;
1947;SDS011;974;52.400;9.818;2022-08-30T15:35:42;2.00;;;0.60;;
1947;SDS011;974;52.400;9.818;2022-08-30T15:38:08;2.00;;;0.60;;
1947;SDS011;974;52.400;9.818;2022-08-30T15:40:34;2.00;;;0.60;;
1947;SDS011;974;52.400;9.818;2022-08-30T15:43:03;1.90;;;0.60;;
1947;SDS011;974;52.400;9.818;2022-08-30T15:45:29;2.00;;;0.60;;
1947;SDS011;974;52.400;9.818;2022-08-30T15:47:58;2.00;;;0.60;;
1947;SDS011;974;52.400;9.818;2022-08-30T15:50:24;2.00;;;0.60;;
1947;SDS011;974;52.400;9.818;2022-08-30T15:52:49;2.00;;;0.60;;
1947;SDS011;974;52.400;9.818;2022-08-30T15:55:15;2.00;;;0.60;;
1947;SDS011;974;52.400;9.818;2022-08-30T15:57:40;1.90;;;0.60;;
1947;SDS011;974;52.400;9.818;2022-08-30T16:00:06;1.97;;;0.60;;
1947;SDS011;974;52.400;9.818;2022-08-30T16:02:35;2.00;;;0.60;;
1947;SDS011;974;52.400;9.818;2022-08-30T16:05:01;1.90;;;0.60;;
1947;SDS011;974;52.400;9.818;2022-08-30T16:07:27;2.00;;;0.60;;
1947;SDS011;974;52.400;9.818;2022-08-30T16:09:53;1.93;;;0.60;;
1947;SDS011;974;52.400;9.818;2022-08-30T16:12:18;2.00;;;0.60;;
1947;SDS011;974;52.400;9.818;2022-08-30T16:14:44;1.90;;;0.60;;
1947;SDS011;974;52.400;9.818;2022-08-30T16:17:09;2.00;;;0.60;;
1947;SDS011;974;52.400;9.818;2022-08-30T16:19:35;1.90;;;0.60;;
1947;SDS011;974;52.400;9.818;2022-08-30T16:22:01;1.90;;;0.60;;
1947;SDS011;974;52.400;9.818;2022-08-30T16:24:26;2.00;;;0.60;;
1947;SDS011;974;52.400;9.818;2022-08-30T16:26:52;2.00;;;0.60;;
1947;SDS011;974;52.400;9.818;2022-08-30T16:29:17;2.00;;;0.60;;
1947;SDS011;974;52.400;9.818;2022-08-30T16:31:43;2.00;;;0.60;;
1947;SDS011;974;52.400;9.818;2022-08-30T16:34:09;2.00;;;0.60;;
1947;SDS011;974;52.400;9.818;2022-08-30T16:36:36;2.00;;;0.60;;
1947;SDS011;974;52.400;9.818;2022-08-30T16:39:03;2.00;;;0.60;;
1947;SDS011;974;52.400;9.818;2022-08-30T16:41:30;2.00;;;0.60;;
1947;SDS011;974;52.400;9.818;2022-08-30T16:43:55;2.00;;;0.60;;
1947;SDS011;974;52.400;9.818;2022-08-30T16:46:22;2.00;;;0.60;;
1947;SDS011;974;52.400;9.818;2022-08-30T16:48:49;2.00;;;0.60;;
1947;SDS011;974;52.400;9.818;2022-08-30T16:51:16;2.00;;;0.60;;
1947;SDS011;974;52.400;9.818;2022-08-30T16:53:44;2.00;;;0.60;;
1947;SDS011;974;52.400;9.818;2022-08-30T16:56:11;1.90;;;0.60;;